Time;durP1;ratioP1;P1;durP2;ratioP2;P2;SDS_P1;SDS_P2;PMS_P1;PMS_P2;Temp;Humidity;BMP_temperature;BMP_pressure;BME280_temperature;BME280_humidity;BME280_pressure;Samples;Min_cycle;Max_cycle;Signal;HPM_P1;HPM_P2
2024/01/31 00:01:28;;;;;;;;;;;;;;;5.64;100.00;103307.91;5010685;28;20332;-74
2024/01/31 00:03:53;;;;;;;;;;;;;;;5.61;100.00;103313.84;4988947;28;19922;-74
2024/01/31 00:06:18;;;;;;;;;;;;;;;5.58;100.00;103316.31;4987157;28;19925;-74
2024/01/31 00:08:43;;;;;;;;;;;;;;;5.57;100.00;103313.63;5002350;28;19928;-74
2024/01/31 00:11:09;;;;;;;;;;;;;;;5.57;100.00;103318.84;5012183;28;19960;-74
2024/01/31 00:13:34;;;;;;;;;;;;;;;5.52;100.00;103313.41;4982001;28;20008;-74
2024/01/31 00:16:00;;;;;;;;;;;;;;;5.53;100.00;103318.69;5010869;28;19956;-73
2024/01/31 00:18:25;;;;;;;;;;;;;;;5.47;100.00;103313.16;4992887;28;20270;-74
2024/01/31 00:20:50;;;;;;;;;;;;;;;5.46;100.00;103319.22;4991897;28;20413;-74
2024/01/31 00:23:16;;;;;;;;;;;;;;;5.43;100.00;103324.25;4980826;28;19964;-73
2024/01/31 00:25:41;;;;;;;;;;;;;;;5.45;100.00;103337.34;5007759;28;20361;-73
2024/01/31 00:28:06;;;;;;;;;;;;;;;5.41;100.00;103332.81;5005654;28;19924;-73
2024/01/31 00:30:32;;;;;;;;;;;;;;;5.40;100.00;103339.69;4995354;28;19932;-73
2024/01/31 00:32:59;;;;;;;;;;;;;;;5.36;100.00;103333.47;4985484;28;19933;-74
2024/01/31 00:35:25;;;;;;;;;;;;;;;5.35;100.00;103344.66;5007058;28;20642;-73
2024/01/31 00:37:50;;;;;;;;;;;;;;;5.34;100.00;103344.59;4983211;28;19926;-74
2024/01/31 00:40:15;;;;;;;;;;;;;;;5.34;100.00;103349.78;4989081;28;20019;-74
2024/01/31 00:42:42;;;;;;;;;;;;;;;5.31;100.00;103352.25;5012285;28;19948;-73
2024/01/31 00:45:08;;;;;;;;;;;;;;;5.30;100.00;103353.97;4995999;28;19921;-74
2024/01/31 00:47:35;;;;;;;;;;;;;;;5.30;100.00;103353.06;4997313;28;20261;-74
2024/01/31 00:50:00;;;;;;;;;;;;;;;5.30;100.00;103358.25;5013058;28;20277;-74
2024/01/31 00:52:26;;;;;;;;;;;;;;;5.28;100.00;103363.38;4992334;28;19941;-73
2024/01/31 00:54:52;;;;;;;;;;;;;;;5.28;100.00;103360.78;4996816;28;19929;-73
2024/01/31 00:57:18;;;;;;;;;;;;;;;5.27;100.00;103360.69;5012383;28;19924;-73
2024/01/31 00:59:43;;;;;;;;;;;;;;;5.24;100.00;103358.81;4989393;28;19926;-74
2024/01/31 01:02:11;;;;;;;;;;;;;;;5.24;100.00;103358.81;5001103;28;20296;-74
2024/01/31 01:04:36;;;;;;;;;;;;;;;5.23;100.00;103361.34;4993738;28;19932;-74
2024/01/31 01:07:02;;;;;;;;;;;;;;;5.23;100.00;103366.56;5008568;28;19932;-73
2024/01/31 01:09:27;;;;;;;;;;;;;;;5.19;100.00;103366.41;5007588;28;19917;-73
2024/01/31 01:11:53;;;;;;;;;;;;;;;5.19;100.00;103363.81;4997531;28;19940;-73
2024/01/31 01:14:21;;;;;;;;;;;;;;;5.17;100.00;103362.84;4988335;28;19936;-74
2024/01/31 01:16:46;;;;;;;;;;;;;;;5.17;100.00;103378.44;5000769;28;19924;-73
2024/01/31 01:19:14;;;;;;;;;;;;;;;5.16;100.00;103376.66;4997596;28;20416;-73
2024/01/31 01:21:39;;;;;;;;;;;;;;;5.15;100.00;103374.84;5011299;28;20289;-73
2024/01/31 01:24:04;;;;;;;;;;;;;;;5.14;100.00;103375.69;4992656;28;19922;-73
2024/01/31 01:26:30;;;;;;;;;;;;;;;5.14;100.00;103375.69;4993272;28;19928;-73
2024/01/31 01:28:55;;;;;;;;;;;;;;;5.13;100.00;103383.38;4988701;28;19971;-74
2024/01/31 01:31:39;;;;;;;;;;;;;;;5.13;100.00;103375.59;4992107;28;19928;-73
2024/01/31 01:34:04;;;;;;;;;;;;;;;5.12;100.00;103374.69;5011430;28;19921;-74
2024/01/31 01:39:34;;;;;;;;;;;;;;;5.11;100.00;103378.09;5028784;28;20388;-74
2024/01/31 01:41:59;;;;;;;;;;;;;;;5.10;100.00;103376.34;4994496;28;20008;-74
2024/01/31 01:44:24;;;;;;;;;;;;;;;5.10;100.00;103375.44;4988293;28;20447;-74
2024/01/31 01:46:50;;;;;;;;;;;;;;;5.09;100.00;103374.56;5007073;28;19925;-74
2024/01/31 01:49:16;;;;;;;;;;;;;;;5.09;100.00;103378.88;4990070;28;19929;-74
2024/01/31 01:51:42;;;;;;;;;;;;;;;5.09;100.00;103377.16;4990152;28;19925;-74
2024/01/31 01:54:12;;;;;;;;;;;;;;;5.07;100.00;103376.19;4992324;28;19925;-73
2024/01/31 01:56:40;;;;;;;;;;;;;;;5.06;100.00;103366.59;5010000;28;19917;-74
2024/01/31 01:59:05;;;;;;;;;;;;;;;5.05;100.00;103370.00;5009405;28;19992;-74
2024/01/31 02:01:31;;;;;;;;;;;;;;;5.05;100.00;103374.31;4994990;28;19933;-74
2024/01/31 02:03:57;;;;;;;;;;;;;;;5.05;100.00;103370.00;5010957;28;19921;-74
2024/01/31 02:06:26;;;;;;;;;;;;;;;5.04;100.00;103368.19;4988340;28;20317;-66
2024/01/31 02:08:52;;;;;;;;;;;;;;;5.03;100.00;103361.25;4993549;28;19933;-67
2024/01/31 02:11:17;;;;;;;;;;;;;;;5.02;100.00;103369.84;4991299;28;19922;-67
2024/01/31 02:13:43;;;;;;;;;;;;;;;4.99;100.00;103361.91;4998317;28;20393;-67
2024/01/31 02:16:08;;;;;;;;;;;;;;;4.97;100.00;103364.41;4985534;28;19987;-67
2024/01/31 02:18:33;;;;;;;;;;;;;;;4.96;100.00;103361.75;5002328;28;19952;-67
2024/01/31 02:20:58;;;;;;;;;;;;;;;4.95;100.00;103366.03;5010050;28;19917;-66
2024/01/31 02:23:24;;;;;;;;;;;;;;;4.95;100.00;103360.81;4988474;28;19921;-66
2024/01/31 02:25:51;;;;;;;;;;;;;;;4.92;100.00;103360.66;5003509;28;19960;-66
2024/01/31 02:28:17;;;;;;;;;;;;;;;4.91;100.00;103358.00;5027052;28;19928;-67
2024/01/31 02:30:43;;;;;;;;;;;;;;;4.89;100.00;103347.53;4992085;28;19929;-67
2024/01/31 02:33:13;;;;;;;;;;;;;;;4.88;100.00;103355.25;5008813;28;19928;-67
2024/01/31 02:35:41;;;;;;;;;;;;;;;4.86;100.00;103350.84;5012758;28;20306;-66
2024/01/31 02:38:06;;;;;;;;;;;;;;;4.86;100.00;103361.25;5005164;28;19928;-66
2024/01/31 02:40:31;;;;;;;;;;;;;;;4.86;100.00;103360.38;4985823;28;19925;-67
2024/01/31 02:42:58;;;;;;;;;;;;;;;4.86;100.00;103356.06;5005367;28;20348;-66
2024/01/31 02:45:24;;;;;;;;;;;;;;;4.85;100.00;103364.66;5011402;28;19949;-67
2024/01/31 02:47:49;;;;;;;;;;;;;;;4.85;100.00;103369.84;5009198;28;19948;-66
2024/01/31 02:50:14;;;;;;;;;;;;;;;4.83;100.00;103363.69;5002249;28;20016;-66
2024/01/31 02:52:40;;;;;;;;;;;;;;;4.83;100.00;103368.00;4992836;28;19921;-66
2024/01/31 02:55:06;;;;;;;;;;;;;;;4.84;100.00;103361.97;4992972;28;19929;-66
2024/01/31 02:57:31;;;;;;;;;;;;;;;4.83;100.00;103360.22;4989885;28;19974;-74
2024/01/31 02:59:56;;;;;;;;;;;;;;;4.82;100.00;103361.00;4996110;28;20385;-74
2024/01/31 03:02:22;;;;;;;;;;;;;;;4.82;100.00;103353.22;4984527;28;19948;-74
2024/01/31 03:04:47;;;;;;;;;;;;;;;4.82;100.00;103358.41;5007536;28;19918;-74
2024/01/31 03:07:12;;;;;;;;;;;;;;;4.82;100.00;103353.22;4983693;28;19925;-74
2024/01/31 03:09:38;;;;;;;;;;;;;;;4.79;100.00;103340.94;4995136;28;19921;-74
2024/01/31 03:12:04;;;;;;;;;;;;;;;4.80;100.00;103342.75;5009470;28;20376;-74
2024/01/31 03:14:30;;;;;;;;;;;;;;;4.78;100.00;103339.16;4984257;28;19933;-74
2024/01/31 03:16:55;;;;;;;;;;;;;;;4.79;100.00;103342.66;5004490;28;19925;-74
2024/01/31 03:19:20;;;;;;;;;;;;;;;4.77;100.00;103350.38;4985485;28;19976;-74
2024/01/31 03:21:46;;;;;;;;;;;;;;;4.76;100.00;103347.72;4987145;28;19981;-74
2024/01/31 03:24:12;;;;;;;;;;;;;;;4.75;100.00;103349.41;4977362;28;20008;-73
2024/01/31 03:26:37;;;;;;;;;;;;;;;4.73;100.00;103332.84;4986244;28;19951;-74
2024/01/31 03:29:03;;;;;;;;;;;;;;;4.71;100.00;103333.56;5008885;28;20422;-74
2024/01/31 03:31:28;;;;;;;;;;;;;;;4.70;100.00;103335.28;4985199;28;19928;-66
2024/01/31 03:33:53;;;;;;;;;;;;;;;4.69;100.00;103342.16;4985247;28;19941;-66
2024/01/31 03:36:19;;;;;;;;;;;;;;;4.68;100.00;103332.63;4993997;28;19921;-67
2024/01/31 03:38:44;;;;;;;;;;;;;;;4.67;100.00;103332.53;5003707;28;19928;-66
2024/01/31 03:41:10;;;;;;;;;;;;;;;4.67;100.00;103330.81;4988485;28;19921;-74
2024/01/31 03:43:35;;;;;;;;;;;;;;;4.64;100.00;103322.88;4991781;28;20297;-74
2024/01/31 03:46:04;;;;;;;;;;;;;;;4.63;100.00;103322.78;5000557;28;19928;-67
2024/01/31 03:48:30;;;;;;;;;;;;;;;4.61;100.00;103319.22;5006685;28;19972;-67
2024/01/31 03:50:58;;;;;;;;;;;;;;;4.60;100.00;103317.44;5002107;28;19928;-66
2024/01/31 03:53:23;;;;;;;;;;;;;;;4.60;100.00;103314.84;4993909;28;20020;-72
2024/01/31 03:55:49;;;;;;;;;;;;;;;4.58;100.00;103317.34;4998372;28;20032;-74
2024/01/31 03:58:14;;;;;;;;;;;;;;;4.59;100.00;103315.66;4990483;28;20346;-74
2024/01/31 04:00:44;;;;;;;;;;;;;;;4.60;100.00;103314.84;5009847;28;20440;-74
2024/01/31 04:03:10;;;;;;;;;;;;;;;4.59;100.00;103315.66;5012527;28;19967;-74
2024/01/31 04:05:35;;;;;;;;;;;;;;;4.60;100.00;103323.53;5014367;28;19933;-74
2024/01/31 04:08:01;;;;;;;;;;;;;;;4.60;100.00;103309.66;4991945;28;19929;-74
2024/01/31 04:10:26;;;;;;;;;;;;;;;4.58;100.00;103314.72;5003785;28;20045;-66
2024/01/31 04:12:52;;;;;;;;;;;;;;;4.57;100.00;103309.47;4992847;28;19932;-67
2024/01/31 04:15:18;;;;;;;;;;;;;;;4.56;100.00;103313.78;4996452;28;19925;-67
2024/01/31 04:17:45;;;;;;;;;;;;;;;4.56;100.00;103307.69;5003743;28;20015;-67
2024/01/31 04:20:13;;;;;;;;;;;;;;;4.58;100.00;103300.88;5004428;28;19917;-67
2024/01/31 04:22:39;;;;;;;;;;;;;;;4.57;100.00;103305.19;5012729;28;19917;-67
2024/01/31 04:25:04;;;;;;;;;;;;;;;4.55;100.00;103301.59;4999104;28;19921;-67
2024/01/31 04:27:30;;;;;;;;;;;;;;;4.51;100.00;103305.75;5007488;28;19921;-67
2024/01/31 04:29:55;;;;;;;;;;;;;;;4.50;100.00;103309.16;4987401;28;19947;-67
2024/01/31 04:32:22;;;;;;;;;;;;;;;4.53;100.00;103307.53;4988807;28;19925;-75
2024/01/31 04:34:47;;;;;;;;;;;;;;;4.51;100.00;103308.34;5005419;28;19975;-75
2024/01/31 04:37:13;;;;;;;;;;;;;;;4.52;100.00;103309.22;4991396;28;19922;-75
2024/01/31 04:39:38;;;;;;;;;;;;;;;4.52;100.00;103301.44;4990037;28;20373;-75
2024/01/31 04:42:04;;;;;;;;;;;;;;;4.51;100.00;103305.75;5004710;28;19926;-75
2024/01/31 04:44:29;;;;;;;;;;;;;;;4.49;100.00;103306.47;5014902;28;19924;-74
2024/01/31 04:46:54;;;;;;;;;;;;;;;4.47;100.00;103309.00;4986794;28;20414;-75
2024/01/31 04:49:20;;;;;;;;;;;;;;;4.48;100.00;103310.78;5002611;28;19917;-74
2024/01/31 04:51:45;;;;;;;;;;;;;;;4.47;100.00;103309.00;4990665;28;19932;-74
2024/01/31 04:54:10;;;;;;;;;;;;;;;4.47;100.00;103302.91;5006237;28;19925;-74
2024/01/31 04:56:36;;;;;;;;;;;;;;;4.46;100.00;103316.69;4992110;28;19921;-74
2024/01/31 04:59:01;;;;;;;;;;;;;;;4.47;100.00;103311.59;5005639;28;19921;-74
2024/01/31 05:01:27;;;;;;;;;;;;;;;4.47;100.00;103313.31;5009026;28;20020;-75
2024/01/31 05:03:52;;;;;;;;;;;;;;;4.48;100.00;103300.41;4984312;28;19929;-74
2024/01/31 05:06:20;;;;;;;;;;;;;;;4.49;100.00;103291.78;4988292;28;20375;-74
2024/01/31 05:08:45;;;;;;;;;;;;;;;4.49;100.00;103296.09;5002179;28;19964;-67
2024/01/31 05:11:14;;;;;;;;;;;;;;;4.51;100.00;103299.66;4992421;28;19965;-75
2024/01/31 05:13:39;;;;;;;;;;;;;;;4.52;100.00;103304.03;5009546;28;20297;-74
2024/01/31 05:16:08;;;;;;;;;;;;;;;4.51;100.00;103300.56;4984584;28;19926;-74
2024/01/31 05:18:34;;;;;;;;;;;;;;;4.53;100.00;103303.22;5008733;28;19917;-75
2024/01/31 05:21:00;;;;;;;;;;;;;;;4.52;100.00;103306.63;5005208;28;20376;-74
2024/01/31 05:23:25;;;;;;;;;;;;;;;4.54;100.00;103309.31;5005908;28;19924;-75
2024/01/31 05:25:51;;;;;;;;;;;;;;;4.53;100.00;103298.03;4985407;28;20416;-74
2024/01/31 05:28:16;;;;;;;;;;;;;;;4.51;100.00;103297.97;4991136;28;19925;-75
2024/01/31 05:30:41;;;;;;;;;;;;;;;4.53;100.00;103304.94;4989687;28;20681;-75
2024/01/31 05:33:06;;;;;;;;;;;;;;;4.55;100.00;103303.31;4996888;28;19925;-74
2024/01/31 05:35:35;;;;;;;;;;;;;;;4.56;100.00;103299.91;4992041;28;20369;-75
2024/01/31 05:38:01;;;;;;;;;;;;;;;4.56;100.00;103303.38;4992343;28;20628;-74
2024/01/31 05:40:26;;;;;;;;;;;;;;;4.58;100.00;103303.47;4992585;28;19941;-67
2024/01/31 05:42:51;;;;;;;;;;;;;;;4.58;100.00;103306.06;4996949;28;20355;-67
2024/01/31 05:45:17;;;;;;;;;;;;;;;4.58;100.00;103301.75;4989214;28;19922;-67
2024/01/31 05:47:42;;;;;;;;;;;;;;;4.60;100.00;103304.47;4990920;28;19925;-67
2024/01/31 05:50:07;;;;;;;;;;;;;;;4.60;100.00;103301.88;4986570;28;20007;-75
2024/01/31 05:52:33;;;;;;;;;;;;;;;4.60;100.00;103305.34;4987209;28;20024;-75
2024/01/31 05:54:58;;;;;;;;;;;;;;;4.63;100.00;103304.63;4987601;28;19930;-75
2024/01/31 05:57:24;;;;;;;;;;;;;;;4.64;100.00;103307.28;4996851;28;19925;-75
2024/01/31 05:59:49;;;;;;;;;;;;;;;4.68;100.00;103301.44;4996153;28;20320;-74
2024/01/31 06:02:14;;;;;;;;;;;;;;;4.62;100.00;103295.91;5006968;28;20455;-67
2024/01/31 06:04:40;;;;;;;;;;;;;;;4.63;100.00;103299.41;4990058;28;19921;-67
2024/01/31 06:07:10;;;;;;;;;;;;;;;4.65;100.00;103308.16;5001282;28;19918;-67
2024/01/31 06:09:36;;;;;;;;;;;;;;;4.66;100.00;103300.47;5011086;28;20431;-75
2024/01/31 06:12:02;;;;;;;;;;;;;;;4.63;100.00;103302.91;4996464;28;19921;-75
2024/01/31 06:14:46;;;;;;;;;;;;;;;4.63;100.00;103305.50;4980725;28;20437;-74
2024/01/31 06:17:14;;;;;;;;;;;;;;;4.63;100.00;103302.03;4981737;28;19931;-67
2024/01/31 06:19:39;;;;;;;;;;;;;;;4.63;100.00;103310.69;4991432;28;20049;-75
2024/01/31 06:22:05;;;;;;;;;;;;;;;4.64;100.00;103299.50;4985382;28;20012;-75
2024/01/31 06:24:30;;;;;;;;;;;;;;;4.65;100.00;103305.56;4985761;28;19929;-67
2024/01/31 06:26:55;;;;;;;;;;;;;;;4.66;100.00;103303.06;4975141;28;19934;-67
2024/01/31 06:29:21;;;;;;;;;;;;;;;4.67;100.00;103283.19;4976987;28;20004;-67
2024/01/31 06:31:47;;;;;;;;;;;;;;;4.67;100.00;103276.28;4990597;28;19928;-66
2024/01/31 06:34:16;;;;;;;;;;;;;;;4.68;100.00;103284.94;4991442;28;19925;-66
2024/01/31 06:36:42;;;;;;;;;;;;;;;4.70;100.00;103280.75;4971468;28;19972;-75
2024/01/31 06:39:09;;;;;;;;;;;;;;;4.68;100.00;103275.47;4992966;28;19917;-74
2024/01/31 06:41:36;;;;;;;;;;;;;;;4.72;100.00;103275.63;4987559;28;19964;-74
2024/01/31 06:44:01;;;;;;;;;;;;;;;4.74;100.00;103267.09;4964584;28;19929;-74
2024/01/31 06:46:27;;;;;;;;;;;;;;;4.76;100.00;103259.38;4972641;28;19921;-74
2024/01/31 06:48:52;;;;;;;;;;;;;;;4.75;100.00;103258.47;4974651;28;19926;-74
2024/01/31 06:51:17;;;;;;;;;;;;;;;4.74;100.00;103251.53;4972485;28;19922;-75
2024/01/31 06:53:44;;;;;;;;;;;;;;;4.75;100.00;103253.28;4993311;28;19918;-75
2024/01/31 06:56:16;;;;;;;;;;;;;;;4.77;100.00;103249.06;4977906;28;20000;-74
2024/01/31 06:58:42;;;;;;;;;;;;;;;4.75;100.00;103257.59;4975191;28;19922;-73
2024/01/31 07:01:07;;;;;;;;;;;;;;;4.78;100.00;103250.84;4975891;28;19928;-66
2024/01/31 07:03:32;;;;;;;;;;;;;;;4.81;100.00;103253.63;4994305;28;19996;-66
2024/01/31 07:05:58;;;;;;;;;;;;;;;4.78;100.00;103256.03;4978087;28;19918;-66
2024/01/31 07:08:23;;;;;;;;;;;;;;;4.78;100.00;103261.22;4977015;28;19925;-66
2024/01/31 07:10:48;;;;;;;;;;;;;;;4.72;100.00;103284.28;4978427;28;20016;-66
2024/01/31 07:13:13;;;;;;;;;;;;;;;4.70;100.00;103296.34;4974589;28;20381;-66
2024/01/31 07:15:39;;;;;;;;;;;;;;;4.70;100.00;103314.50;4982712;28;19924;-66
2024/01/31 07:18:04;;;;;;;;;;;;;;;4.70;100.00;103319.72;5013544;28;20029;-66
2024/01/31 07:20:29;;;;;;;;;;;;;;;4.71;100.00;103324.06;4997691;28;19917;-66
2024/01/31 07:22:55;;;;;;;;;;;;;;;4.72;100.00;103341.44;4993632;28;19921;-74
2024/01/31 07:25:20;;;;;;;;;;;;;;;4.73;100.00;103343.25;4997482;28;19975;-74
2024/01/31 07:27:45;;;;;;;;;;;;;;;4.74;100.00;103351.91;4995201;28;19917;-65
2024/01/31 07:30:11;;;;;;;;;;;;;;;4.75;100.00;103341.59;4997665;28;19971;-66
2024/01/31 07:32:37;;;;;;;;;;;;;;;4.77;100.00;103355.59;4996512;28;19929;-66
2024/01/31 07:35:03;;;;;;;;;;;;;;;4.77;100.00;103352.06;5013382;28;20015;-74
2024/01/31 07:37:28;;;;;;;;;;;;;;;4.78;100.00;103352.16;5010499;28;20020;-66
2024/01/31 07:39:56;;;;;;;;;;;;;;;4.79;100.00;103358.25;5014338;28;19921;-66
2024/01/31 07:42:21;;;;;;;;;;;;;;;4.80;100.00;103360.06;4995695;28;20329;-66
2024/01/31 07:44:48;;;;;;;;;;;;;;;4.80;100.00;103360.06;4999879;28;19928;-66
2024/01/31 07:47:13;;;;;;;;;;;;;;;4.81;100.00;103354.03;5000442;28;19921;-66
2024/01/31 07:49:40;;;;;;;;;;;;;;;4.84;100.00;103357.69;5001142;28;19924;-66
2024/01/31 07:52:05;;;;;;;;;;;;;;;4.84;100.00;103354.19;5015946;28;19923;-66
2024/01/31 07:54:31;;;;;;;;;;;;;;;4.84;100.00;103365.47;5016610;28;19925;-74
2024/01/31 07:57:02;;;;;;;;;;;;;;;4.85;100.00;103364.66;4997150;28;19925;-74
2024/01/31 07:59:28;;;;;;;;;;;;;;;4.86;100.00;103361.25;5005762;28;19940;-74
2024/01/31 08:01:54;;;;;;;;;;;;;;;4.88;100.00;103363.03;5000413;28;19917;-74
2024/01/31 08:04:19;;;;;;;;;;;;;;;4.89;100.00;103357.03;5016838;28;19920;-74
2024/01/31 08:06:44;;;;;;;;;;;;;;;4.90;100.00;103361.41;5000152;28;19921;-74
2024/01/31 08:09:10;;;;;;;;;;;;;;;4.93;100.00;103362.47;5016035;28;19917;-73
2024/01/31 08:11:42;;;;;;;;;;;;;;;4.93;100.00;103361.56;4997710;28;19929;-66
2024/01/31 08:14:07;;;;;;;;;;;;;;;4.94;100.00;103359.06;4995087;28;20306;-66
2024/01/31 08:16:33;;;;;;;;;;;;;;;4.96;100.00;103352.22;4997947;28;19926;-66
2024/01/31 08:18:58;;;;;;;;;;;;;;;4.96;100.00;103348.75;4996675;28;19921;-66
2024/01/31 08:21:23;;;;;;;;;;;;;;;4.96;100.00;103340.97;4991578;28;19968;-66
2024/01/31 08:23:50;;;;;;;;;;;;;;;4.97;100.00;103345.31;5011471;28;19968;-66
2024/01/31 08:26:18;;;;;;;;;;;;;;;4.98;100.00;103344.50;4999975;28;20012;-74
2024/01/31 08:28:44;;;;;;;;;;;;;;;5.01;100.00;103349.84;4998570;28;19917;-74
2024/01/31 08:31:09;;;;;;;;;;;;;;;5.02;100.00;103352.53;5000165;28;19917;-74
2024/01/31 08:33:34;;;;;;;;;;;;;;;5.06;100.00;103338.00;5016021;28;20368;-74
2024/01/31 08:36:00;;;;;;;;;;;;;;;5.08;100.00;103341.56;5015965;28;19913;-74
2024/01/31 08:38:25;;;;;;;;;;;;;;;5.11;100.00;103339.13;4998726;28;19932;-74
2024/01/31 08:40:50;;;;;;;;;;;;;;;5.14;100.00;103336.69;4996424;28;19933;-74
2024/01/31 08:43:18;;;;;;;;;;;;;;;5.16;100.00;103334.19;4993162;28;22187;-73
2024/01/31 08:45:43;;;;;;;;;;;;;;;5.16;100.00;103326.38;4996702;28;19945;-73
2024/01/31 08:48:08;;;;;;;;;;;;;;;5.20;100.00;103326.59;4996761;28;19917;-70
2024/01/31 08:50:33;;;;;;;;;;;;;;;5.19;100.00;103323.94;4999029;28;19917;-66
2024/01/31 08:52:59;;;;;;;;;;;;;;;5.23;100.00;103319.75;4996624;28;20280;-66
2024/01/31 08:55:24;;;;;;;;;;;;;;;5.23;100.00;103320.66;5015832;28;19947;-66
2024/01/31 08:57:49;;;;;;;;;;;;;;;5.26;100.00;103319.91;5011445;28;19937;-66
2024/01/31 09:00:15;;;;;;;;;;;;;;;5.31;100.00;103318.44;4996152;28;20051;-73
2024/01/31 09:02:40;;;;;;;;;;;;;;;5.32;100.00;103309.84;4988774;28;20010;-66
2024/01/31 09:05:06;;;;;;;;;;;;;;;5.37;100.00;103310.94;4999532;28;19956;-66
2024/01/31 09:07:31;;;;;;;;;;;;;;;5.44;100.00;103305.22;5014676;28;19917;-66
2024/01/31 09:09:56;;;;;;;;;;;;;;;5.44;100.00;103300.03;4996066;28;19941;-66
2024/01/31 09:12:22;;;;;;;;;;;;;;;5.55;100.00;103291.03;5002870;28;19917;-66
2024/01/31 09:14:47;;;;;;;;;;;;;;;5.58;100.00;103292.03;4998286;28;20317;-72
2024/01/31 09:17:12;;;;;;;;;;;;;;;5.57;100.00;103285.91;4997507;28;19929;-74
2024/01/31 09:19:38;;;;;;;;;;;;;;;5.61;100.00;103285.25;5000190;28;19922;-74
2024/01/31 09:22:04;;;;;;;;;;;;;;;5.62;100.00;103284.44;4998273;28;20399;-66
2024/01/31 09:24:29;;;;;;;;;;;;;;;5.69;100.00;103275.22;5013301;28;19928;-67
2024/01/31 09:26:54;;;;;;;;;;;;;;;5.71;100.00;103278.78;4990449;28;20315;-66
2024/01/31 09:29:20;;;;;;;;;;;;;;;5.76;100.00;103271.19;5014912;28;19929;-66
2024/01/31 09:31:45;;;;;;;;;;;;;;;5.78;100.00;103266.94;4995202;28;20282;-66
2024/01/31 09:34:10;;;;;;;;;;;;;;;5.71;100.00;103261.44;4998363;28;19948;-73
2024/01/31 09:36:36;;;;;;;;;;;;;;;5.68;100.00;103263.03;4998687;28;20308;-74
2024/01/31 09:39:03;;;;;;;;;;;;;;;5.72;100.00;103259.75;4991219;28;20388;-74
2024/01/31 09:41:28;;;;;;;;;;;;;;;5.70;100.00;103259.69;5000450;28;19967;-74
2024/01/31 09:43:55;;;;;;;;;;;;;;;5.87;100.00;103255.22;4991515;28;20317;-74
2024/01/31 09:46:22;;;;;;;;;;;;;;;5.79;100.00;103261.81;4998624;28;19921;-66
2024/01/31 09:48:48;;;;;;;;;;;;;;;5.93;100.00;103258.97;5002972;28;19925;-74
2024/01/31 09:51:14;;;;;;;;;;;;;;;5.92;100.00;103245.06;4981788;28;19921;-66
2024/01/31 09:53:43;;;;;;;;;;;;;;;5.97;100.00;103240.06;5013901;28;20003;-74
2024/01/31 09:56:09;;;;;;;;;;;;;;;6.06;100.00;103253.53;5014685;28;20289;-66
2024/01/31 09:58:36;;;;;;;;;;;;;;;6.10;100.00;103237.22;5014871;28;20080;-66
2024/01/31 10:01:03;;;;;;;;;;;;;;;6.11;100.00;103238.13;4996645;28;19928;-73
2024/01/31 10:03:28;;;;;;;;;;;;;;;6.19;100.00;103236.75;5014462;28;19963;-73
2024/01/31 10:05:53;;;;;;;;;;;;;;;6.28;100.00;103249.28;4998334;28;20340;-67
2024/01/31 10:08:19;;;;;;;;;;;;;;;6.26;100.00;103248.34;4994229;28;20416;-75
2024/01/31 10:10:44;;;;;;;;;;;;;;;6.37;100.00;103249.69;4993868;28;19924;-73
2024/01/31 10:13:09;;;;;;;;;;;;;;;6.33;100.00;103255.59;5014178;28;19932;-66
2024/01/31 10:15:35;;;;;;;;;;;;;;;6.40;100.00;103260.25;4998092;28;19932;-66
2024/01/31 10:18:02;;;;;;;;;;;;;;;6.45;100.00;103260.44;5014641;28;19921;-66
2024/01/31 10:20:27;;;;;;;;;;;;;;;6.54;100.00;103263.47;5014684;28;19913;-66
2024/01/31 10:22:52;;;;;;;;;;;;;;;6.54;100.00;103261.75;5012865;28;20349;-66
2024/01/31 10:25:19;;;;;;;;;;;;;;;6.60;100.00;103258.53;4994606;28;19918;-66
2024/01/31 10:27:49;;;;;;;;;;;;;;;6.60;100.00;103268.94;5003480;28;19921;-66
2024/01/31 10:30:15;;;;;;;;;;;;;;;6.61;100.00;103267.22;4998822;28;20381;-67
2024/01/31 10:32:41;;;;;;;;;;;;;;;6.62;100.00;103266.41;4993998;28;19921;-66
2024/01/31 10:35:06;;;;;;;;;;;;;;;6.64;100.00;103267.34;4997112;28;19933;-66
2024/01/31 10:37:32;;;;;;;;;;;;;;;6.59;100.00;103265.47;4989297;28;19927;-66
2024/01/31 10:39:58;;;;;;;;;;;;;;;6.55;100.00;103268.75;4988752;28;20020;-66
2024/01/31 10:42:24;;;;;;;;;;;;;;;6.54;100.00;103269.56;5010846;28;19913;-66
2024/01/31 10:44:49;;;;;;;;;;;;;;;6.53;100.00;103274.72;5013924;28;20397;-66
2024/01/31 10:47:15;;;;;;;;;;;;;;;6.55;100.00;103275.66;4997851;28;20072;-66
2024/01/31 10:49:40;;;;;;;;;;;;;;;6.59;100.00;103275.88;5014026;28;19913;-66
2024/01/31 10:52:08;;;;;;;;;;;;;;;6.64;100.00;103275.16;4996753;28;20368;-66
2024/01/31 10:54:35;;;;;;;;;;;;;;;6.65;100.00;103264.84;5012491;28;19975;-66
2024/01/31 10:57:02;;;;;;;;;;;;;;;6.69;100.00;103264.13;5013778;28;19917;-66
2024/01/31 10:59:33;;;;;;;;;;;;;;;6.75;100.00;103266.09;5013674;28;19956;-66
2024/01/31 11:02:01;;;;;;;;;;;;;;;6.78;100.00;103261.03;4994191;28;19913;-66
2024/01/31 11:04:27;;;;;;;;;;;;;;;6.77;100.00;103243.63;4992211;28;19951;-66
2024/01/31 11:06:53;;;;;;;;;;;;;;;6.78;100.00;103242.81;5013085;28;20017;-66
2024/01/31 11:09:22;;;;;;;;;;;;;;;6.76;100.00;103241.84;5013115;28;20340;-67
2024/01/31 11:11:59;;;;;;;;;;;;;;;6.79;100.00;103241.97;4993991;28;19921;-66
2024/01/31 11:14:29;;;;;;;;;;;;;;;6.83;100.00;103238.66;5006630;28;20336;-74
2024/01/31 11:17:04;;;;;;;;;;;;;;;6.80;100.00;103222.91;5013939;28;19922;-74
2024/01/31 11:19:30;;;;;;;;;;;;;;;6.81;100.00;103216.88;5007348;28;19917;-74
2024/01/31 11:21:55;;;;;;;;;;;;;;;6.77;100.00;103207.13;4980972;28;19960;-66
2024/01/31 11:24:23;;;;;;;;;;;;;;;6.79;100.00;103205.47;5009101;28;19948;-74
2024/01/31 11:26:49;;;;;;;;;;;;;;;6.77;100.00;103191.50;5016960;28;19917;-75
2024/01/31 11:29:15;;;;;;;;;;;;;;;6.76;100.00;103192.31;4993568;28;19927;-74
2024/01/31 11:31:41;;;;;;;;;;;;;;;6.75;100.00;103186.22;5017980;28;19944;-74
2024/01/31 11:34:06;;;;;;;;;;;;;;;6.75;100.00;103193.13;4999392;28;20317;-74
2024/01/31 11:36:31;;;;;;;;;;;;;;;6.72;100.00;103180.91;5000935;28;20439;-74
2024/01/31 11:38:57;;;;;;;;;;;;;;;6.66;100.00;103170.19;5000822;28;19978;-73
2024/01/31 11:41:22;;;;;;;;;;;;;;;6.64;100.00;103169.25;5000262;28;20381;-73
2024/01/31 11:43:48;;;;;;;;;;;;;;;6.64;100.00;103160.53;4999213;28;19932;-73
2024/01/31 11:46:14;;;;;;;;;;;;;;;6.63;100.00;103158.78;4992724;28;19929;-73
2024/01/31 11:48:39;;;;;;;;;;;;;;;6.57;100.00;103147.25;4988751;28;20297;-73
2024/01/31 11:51:05;;;;;;;;;;;;;;;6.61;100.00;103137.88;5000256;28;19921;-66
2024/01/31 11:53:30;;;;;;;;;;;;;;;6.55;100.00;103132.38;4999140;28;19936;-66
2024/01/31 11:55:56;;;;;;;;;;;;;;;6.54;100.00;103130.63;4996552;28;19925;-66
2024/01/31 11:58:21;;;;;;;;;;;;;;;6.54;100.00;103120.19;4995726;28;19927;-66
2024/01/31 12:00:48;;;;;;;;;;;;;;;6.57;100.00;103109.91;5016238;28;19932;-66
2024/01/31 12:03:14;;;;;;;;;;;;;;;6.52;100.00;103106.19;4998592;28;20373;-66
2024/01/31 12:05:39;;;;;;;;;;;;;;;6.54;100.00;103115.00;4999772;28;19917;-66
2024/01/31 12:08:04;;;;;;;;;;;;;;;6.50;99.03;103103.53;4994537;28;19933;-66
2024/01/31 12:10:32;;;;;;;;;;;;;;;6.49;98.84;103099.16;4999798;28;19925;-66
2024/01/31 12:13:00;;;;;;;;;;;;;;;6.50;97.27;103093.13;5015146;28;19924;-66
2024/01/31 12:15:25;;;;;;;;;;;;;;;6.46;96.51;103098.16;4996109;28;19995;-66
2024/01/31 12:17:51;;;;;;;;;;;;;;;6.47;97.53;103106.03;5010292;28;19925;-66
2024/01/31 12:20:16;;;;;;;;;;;;;;;6.48;97.93;103097.38;5000274;28;19952;-73
2024/01/31 12:22:41;;;;;;;;;;;;;;;6.49;99.09;103093.06;5014822;28;20291;-73
2024/01/31 12:25:07;;;;;;;;;;;;;;;6.51;100.00;103094.03;5029825;28;19928;-73
2024/01/31 12:27:33;;;;;;;;;;;;;;;6.52;97.04;103091.47;5033363;28;20381;-73
2024/01/31 12:29:59;;;;;;;;;;;;;;;6.53;98.41;103085.44;5015777;28;19968;-66
2024/01/31 12:32:25;;;;;;;;;;;;;;;6.46;96.10;103080.78;4999498;28;19936;-66
2024/01/31 12:34:50;;;;;;;;;;;;;;;6.45;95.51;103073.81;4999526;28;20339;-66